sensor_id;sensor_type;location;lat;lon;timestamp;P1;durP1;ratioP1;P2;durP2;ratioP2
48765;SDS011;65794;51.836;5.002;2024-01-16T00:00:34;1.70;;;0.65;;
48765;SDS011;65794;51.836;5.002;2024-01-16T00:03:01;12.90;;;1.52;;
48765;SDS011;65794;51.836;5.002;2024-01-16T00:05:28;8.43;;;1.15;;
48765;SDS011;65794;51.836;5.002;2024-01-16T00:07:55;10.20;;;1.52;;
48765;SDS011;65794;51.836;5.002;2024-01-16T00:10:21;3.22;;;1.00;;
48765;SDS011;65794;51.836;5.002;2024-01-16T00:12:48;6.63;;;1.02;;
48765;SDS011;65794;51.836;5.002;2024-01-16T00:15:15;11.02;;;0.80;;
48765;SDS011;65794;51.836;5.002;2024-01-16T00:17:42;6.20;;;0.95;;
48765;SDS011;65794;51.836;5.002;2024-01-16T00:20:09;3.38;;;1.20;;
48765;SDS011;65794;51.836;5.002;2024-01-16T00:22:36;7.22;;;1.48;;
48765;SDS011;65794;51.836;5.002;2024-01-16T00:25:02;5.35;;;1.23;;
48765;SDS011;65794;51.836;5.002;2024-01-16T00:27:29;6.75;;;1.15;;
48765;SDS011;65794;51.836;5.002;2024-01-16T00:29:56;16.33;;;1.30;;
48765;SDS011;65794;51.836;5.002;2024-01-16T00:32:23;8.68;;;1.55;;
48765;SDS011;65794;51.836;5.002;2024-01-16T00:34:50;6.22;;;1.17;;
48765;SDS011;65794;51.836;5.002;2024-01-16T00:37:17;4.43;;;0.93;;
48765;SDS011;65794;51.836;5.002;2024-01-16T00:39:44;7.15;;;1.20;;
48765;SDS011;65794;51.836;5.002;2024-01-16T00:42:10;4.20;;;1.50;;
48765;SDS011;65794;51.836;5.002;2024-01-16T00:44:37;10.48;;;1.85;;
48765;SDS011;65794;51.836;5.002;2024-01-16T00:47:04;9.77;;;1.58;;
48765;SDS011;65794;51.836;5.002;2024-01-16T00:49:32;9.32;;;1.63;;
48765;SDS011;65794;51.836;5.002;2024-01-16T00:51:59;11.10;;;1.40;;
48765;SDS011;65794;51.836;5.002;2024-01-16T00:54:26;9.15;;;1.05;;
48765;SDS011;65794;51.836;5.002;2024-01-16T00:56:53;5.47;;;1.40;;
48765;SDS011;65794;51.836;5.002;2024-01-16T00:59:26;7.63;;;0.90;;
48765;SDS011;65794;51.836;5.002;2024-01-16T01:01:52;7.78;;;1.15;;
48765;SDS011;65794;51.836;5.002;2024-01-16T01:04:20;6.22;;;1.00;;
48765;SDS011;65794;51.836;5.002;2024-01-16T01:06:46;3.70;;;0.93;;
48765;SDS011;65794;51.836;5.002;2024-01-16T01:09:13;6.78;;;1.05;;
48765;SDS011;65794;51.836;5.002;2024-01-16T01:11:40;6.60;;;1.48;;
48765;SDS011;65794;51.836;5.002;2024-01-16T01:14:07;11.65;;;1.48;;
48765;SDS011;65794;51.836;5.002;2024-01-16T01:16:34;3.33;;;0.93;;
48765;SDS011;65794;51.836;5.002;2024-01-16T01:19:01;11.30;;;1.40;;
48765;SDS011;65794;51.836;5.002;2024-01-16T01:21:28;6.00;;;1.02;;
48765;SDS011;65794;51.836;5.002;2024-01-16T01:23:54;18.38;;;1.10;;
48765;SDS011;65794;51.836;5.002;2024-01-16T01:26:21;6.10;;;1.08;;
48765;SDS011;65794;51.836;5.002;2024-01-16T01:28:48;5.18;;;0.70;;
48765;SDS011;65794;51.836;5.002;2024-01-16T01:31:15;6.30;;;0.85;;
48765;SDS011;65794;51.836;5.002;2024-01-16T01:33:42;7.00;;;1.20;;
48765;SDS011;65794;51.836;5.002;2024-01-16T01:36:09;3.78;;;0.93;;
48765;SDS011;65794;51.836;5.002;2024-01-16T01:38:36;11.65;;;1.10;;
48765;SDS011;65794;51.836;5.002;2024-01-16T01:41:03;5.50;;;0.40;;
48765;SDS011;65794;51.836;5.002;2024-01-16T01:43:33;11.82;;;1.00;;
48765;SDS011;65794;51.836;5.002;2024-01-16T01:46:14;11.55;;;1.58;;
48765;SDS011;65794;51.836;5.002;2024-01-16T01:48:42;8.73;;;0.80;;
48765;SDS011;65794;51.836;5.002;2024-01-16T01:51:12;7.32;;;1.30;;
48765;SDS011;65794;51.836;5.002;2024-01-16T01:53:41;4.68;;;0.73;;
48765;SDS011;65794;51.836;5.002;2024-01-16T01:56:10;5.13;;;0.75;;
48765;SDS011;65794;51.836;5.002;2024-01-16T01:58:38;3.53;;;0.93;;
48765;SDS011;65794;51.836;5.002;2024-01-16T02:01:05;16.27;;;2.35;;
48765;SDS011;65794;51.836;5.002;2024-01-16T02:03:44;7.07;;;1.73;;
48765;SDS011;65794;51.836;5.002;2024-01-16T02:06:13;8.95;;;0.70;;
48765;SDS011;65794;51.836;5.002;2024-01-16T02:08:44;14.02;;;1.00;;
48765;SDS011;65794;51.836;5.002;2024-01-16T02:11:11;5.97;;;1.45;;
48765;SDS011;65794;51.836;5.002;2024-01-16T02:13:38;3.97;;;0.80;;
48765;SDS011;65794;51.836;5.002;2024-01-16T02:16:05;4.32;;;0.82;;
48765;SDS011;65794;51.836;5.002;2024-01-16T02:18:32;5.60;;;1.02;;
48765;SDS011;65794;51.836;5.002;2024-01-16T02:21:00;1.45;;;0.38;;
48765;SDS011;65794;51.836;5.002;2024-01-16T02:23:30;6.78;;;1.45;;
48765;SDS011;65794;51.836;5.002;2024-01-16T02:25:58;4.35;;;0.50;;
48765;SDS011;65794;51.836;5.002;2024-01-16T02:28:25;7.38;;;0.60;;
48765;SDS011;65794;51.836;5.002;2024-01-16T02:30:51;5.40;;;0.45;;
48765;SDS011;65794;51.836;5.002;2024-01-16T02:33:18;7.00;;;0.82;;
48765;SDS011;65794;51.836;5.002;2024-01-16T02:35:45;2.45;;;0.63;;
48765;SDS011;65794;51.836;5.002;2024-01-16T02:38:12;1.83;;;0.63;;
48765;SDS011;65794;51.836;5.002;2024-01-16T02:40:39;1.92;;;0.50;;
48765;SDS011;65794;51.836;5.002;2024-01-16T02:43:08;2.95;;;0.52;;
48765;SDS011;65794;51.836;5.002;2024-01-16T02:45:35;2.90;;;0.32;;
48765;SDS011;65794;51.836;5.002;2024-01-16T02:48:01;2.95;;;0.43;;
48765;SDS011;65794;51.836;5.002;2024-01-16T02:50:30;0.88;;;0.30;;
48765;SDS011;65794;51.836;5.002;2024-01-16T02:52:57;2.40;;;0.73;;
48765;SDS011;65794;51.836;5.002;2024-01-16T02:55:23;3.38;;;0.35;;
48765;SDS011;65794;51.836;5.002;2024-01-16T02:57:51;6.47;;;0.52;;
48765;SDS011;65794;51.836;5.002;2024-01-16T03:00:18;1.13;;;0.30;;
48765;SDS011;65794;51.836;5.002;2024-01-16T03:02:44;7.22;;;0.50;;
48765;SDS011;65794;51.836;5.002;2024-01-16T03:05:11;6.45;;;0.60;;
48765;SDS011;65794;51.836;5.002;2024-01-16T03:07:38;5.22;;;0.30;;
48765;SDS011;65794;51.836;5.002;2024-01-16T03:10:05;3.97;;;0.40;;
48765;SDS011;65794;51.836;5.002;2024-01-16T03:12:33;4.93;;;0.55;;
48765;SDS011;65794;51.836;5.002;2024-01-16T03:15:00;3.13;;;1.10;;
48765;SDS011;65794;51.836;5.002;2024-01-16T03:17:26;7.32;;;0.52;;
48765;SDS011;65794;51.836;5.002;2024-01-16T03:19:53;4.15;;;0.40;;
48765;SDS011;65794;51.836;5.002;2024-01-16T03:22:20;6.80;;;0.40;;
48765;SDS011;65794;51.836;5.002;2024-01-16T03:24:49;2.45;;;0.40;;
48765;SDS011;65794;51.836;5.002;2024-01-16T03:27:17;4.28;;;0.57;;
48765;SDS011;65794;51.836;5.002;2024-01-16T03:29:44;3.60;;;0.50;;
48765;SDS011;65794;51.836;5.002;2024-01-16T03:32:12;1.77;;;0.52;;
48765;SDS011;65794;51.836;5.002;2024-01-16T03:34:38;16.90;;;0.82;;
48765;SDS011;65794;51.836;5.002;2024-01-16T03:37:07;1.30;;;0.43;;
48765;SDS011;65794;51.836;5.002;2024-01-16T03:39:34;5.28;;;0.68;;
48765;SDS011;65794;51.836;5.002;2024-01-16T03:42:00;6.25;;;0.98;;
48765;SDS011;65794;51.836;5.002;2024-01-16T03:44:27;2.63;;;0.75;;
48765;SDS011;65794;51.836;5.002;2024-01-16T03:46:54;2.03;;;0.65;;
48765;SDS011;65794;51.836;5.002;2024-01-16T03:49:21;2.60;;;0.50;;
48765;SDS011;65794;51.836;5.002;2024-01-16T03:51:49;8.27;;;0.82;;
48765;SDS011;65794;51.836;5.002;2024-01-16T03:54:16;4.85;;;0.77;;
48765;SDS011;65794;51.836;5.002;2024-01-16T03:56:42;15.23;;;1.08;;
48765;SDS011;65794;51.836;5.002;2024-01-16T03:59:09;9.75;;;1.08;;
48765;SDS011;65794;51.836;5.002;2024-01-16T04:01:36;3.72;;;0.47;;
48765;SDS011;65794;51.836;5.002;2024-01-16T04:04:04;10.23;;;0.75;;
48765;SDS011;65794;51.836;5.002;2024-01-16T04:06:34;23.52;;;1.15;;
48765;SDS011;65794;51.836;5.002;2024-01-16T04:09:01;1.98;;;0.57;;
48765;SDS011;65794;51.836;5.002;2024-01-16T04:11:28;8.50;;;0.88;;
48765;SDS011;65794;51.836;5.002;2024-01-16T04:13:55;3.10;;;0.70;;
48765;SDS011;65794;51.836;5.002;2024-01-16T04:16:22;1.38;;;0.55;;
48765;SDS011;65794;51.836;5.002;2024-01-16T04:18:49;10.82;;;0.82;;
48765;SDS011;65794;51.836;5.002;2024-01-16T04:21:16;7.82;;;1.55;;
48765;SDS011;65794;51.836;5.002;2024-01-16T04:23:46;13.98;;;0.90;;
48765;SDS011;65794;51.836;5.002;2024-01-16T04:26:13;10.73;;;0.70;;
48765;SDS011;65794;51.836;5.002;2024-01-16T04:28:40;8.40;;;0.80;;
48765;SDS011;65794;51.836;5.002;2024-01-16T04:31:07;11.68;;;1.50;;
48765;SDS011;65794;51.836;5.002;2024-01-16T04:33:34;7.63;;;0.57;;
48765;SDS011;65794;51.836;5.002;2024-01-16T04:36:01;2.65;;;0.60;;
48765;SDS011;65794;51.836;5.002;2024-01-16T04:38:28;8.40;;;0.65;;
48765;SDS011;65794;51.836;5.002;2024-01-16T04:40:55;11.43;;;1.67;;
48765;SDS011;65794;51.836;5.002;2024-01-16T04:43:22;10.32;;;1.48;;
48765;SDS011;65794;51.836;5.002;2024-01-16T04:45:49;10.73;;;0.82;;
48765;SDS011;65794;51.836;5.002;2024-01-16T04:48:16;6.38;;;0.90;;
48765;SDS011;65794;51.836;5.002;2024-01-16T04:50:43;7.82;;;0.70;;
48765;SDS011;65794;51.836;5.002;2024-01-16T04:53:11;3.88;;;0.70;;
48765;SDS011;65794;51.836;5.002;2024-01-16T04:55:38;11.68;;;0.82;;
48765;SDS011;65794;51.836;5.002;2024-01-16T04:58:05;5.15;;;1.23;;
48765;SDS011;65794;51.836;5.002;2024-01-16T05:00:32;9.65;;;1.80;;
48765;SDS011;65794;51.836;5.002;2024-01-16T05:03:00;8.45;;;1.13;;
48765;SDS011;65794;51.836;5.002;2024-01-16T05:05:29;8.88;;;1.60;;
48765;SDS011;65794;51.836;5.002;2024-01-16T05:07:56;11.70;;;1.33;;
48765;SDS011;65794;51.836;5.002;2024-01-16T05:10:23;12.25;;;1.52;;
48765;SDS011;65794;51.836;5.002;2024-01-16T05:12:50;1.85;;;0.80;;
48765;SDS011;65794;51.836;5.002;2024-01-16T05:15:17;7.60;;;1.35;;
48765;SDS011;65794;51.836;5.002;2024-01-16T05:17:43;4.32;;;0.77;;
48765;SDS011;65794;51.836;5.002;2024-01-16T05:20:10;5.72;;;1.48;;
48765;SDS011;65794;51.836;5.002;2024-01-16T05:22:37;7.75;;;1.60;;
48765;SDS011;65794;51.836;5.002;2024-01-16T05:25:09;24.95;;;1.80;;
48765;SDS011;65794;51.836;5.002;2024-01-16T05:27:36;4.80;;;1.45;;
48765;SDS011;65794;51.836;5.002;2024-01-16T05:30:03;15.38;;;1.55;;
48765;SDS011;65794;51.836;5.002;2024-01-16T05:32:30;5.78;;;1.80;;
48765;SDS011;65794;51.836;5.002;2024-01-16T05:34:57;4.10;;;1.45;;
48765;SDS011;65794;51.836;5.002;2024-01-16T05:37:24;18.35;;;2.50;;
48765;SDS011;65794;51.836;5.002;2024-01-16T05:39:51;7.88;;;1.73;;
48765;SDS011;65794;51.836;5.002;2024-01-16T05:42:17;19.42;;;1.63;;
48765;SDS011;65794;51.836;5.002;2024-01-16T05:44:44;16.13;;;1.98;;
48765;SDS011;65794;51.836;5.002;2024-01-16T05:47:14;10.02;;;1.92;;
48765;SDS011;65794;51.836;5.002;2024-01-16T05:49:44;12.45;;;2.00;;
48765;SDS011;65794;51.836;5.002;2024-01-16T05:52:11;11.23;;;2.15;;
48765;SDS011;65794;51.836;5.002;2024-01-16T05:54:38;18.70;;;2.38;;
48765;SDS011;65794;51.836;5.002;2024-01-16T05:57:04;13.32;;;1.95;;
48765;SDS011;65794;51.836;5.002;2024-01-16T05:59:31;26.45;;;2.90;;
48765;SDS011;65794;51.836;5.002;2024-01-16T06:01:58;6.13;;;1.88;;
48765;SDS011;65794;51.836;5.002;2024-01-16T06:04:25;17.58;;;2.33;;
48765;SDS011;65794;51.836;5.002;2024-01-16T06:06:52;10.63;;;2.30;;
48765;SDS011;65794;51.836;5.002;2024-01-16T06:09:21;22.83;;;3.33;;
48765;SDS011;65794;51.836;5.002;2024-01-16T06:11:48;17.77;;;2.28;;
48765;SDS011;65794;51.836;5.002;2024-01-16T06:14:15;12.27;;;2.10;;
48765;SDS011;65794;51.836;5.002;2024-01-16T06:16:48;10.32;;;1.73;;
48765;SDS011;65794;51.836;5.002;2024-01-16T06:19:15;13.07;;;1.73;;
48765;SDS011;65794;51.836;5.002;2024-01-16T06:21:43;8.43;;;2.40;;
48765;SDS011;65794;51.836;5.002;2024-01-16T06:24:09;9.52;;;2.10;;
48765;SDS011;65794;51.836;5.002;2024-01-16T06:26:38;11.77;;;3.22;;
48765;SDS011;65794;51.836;5.002;2024-01-16T06:29:04;15.23;;;2.08;;
48765;SDS011;65794;51.836;5.002;2024-01-16T06:31:37;8.40;;;1.60;;
48765;SDS011;65794;51.836;5.002;2024-01-16T06:34:04;10.27;;;1.90;;
48765;SDS011;65794;51.836;5.002;2024-01-16T06:36:31;6.88;;;1.95;;
48765;SDS011;65794;51.836;5.002;2024-01-16T06:39:05;13.27;;;1.80;;
48765;SDS011;65794;51.836;5.002;2024-01-16T06:41:33;4.85;;;1.30;;
48765;SDS011;65794;51.836;5.002;2024-01-16T06:43:59;5.72;;;1.77;;
48765;SDS011;65794;51.836;5.002;2024-01-16T06:46:26;10.02;;;1.88;;
48765;SDS011;65794;51.836;5.002;2024-01-16T06:48:53;8.80;;;2.67;;
48765;SDS011;65794;51.836;5.002;2024-01-16T06:51:20;6.55;;;1.65;;
48765;SDS011;65794;51.836;5.002;2024-01-16T06:53:47;14.18;;;2.03;;
48765;SDS011;65794;51.836;5.002;2024-01-16T06:56:14;5.50;;;1.67;;
48765;SDS011;65794;51.836;5.002;2024-01-16T06:58:41;8.25;;;2.28;;
48765;SDS011;65794;51.836;5.002;2024-01-16T07:01:10;8.23;;;1.98;;
48765;SDS011;65794;51.836;5.002;2024-01-16T07:03:37;4.82;;;2.03;;
48765;SDS011;65794;51.836;5.002;2024-01-16T07:06:04;11.27;;;1.95;;
48765;SDS011;65794;51.836;5.002;2024-01-16T07:08:31;7.15;;;2.10;;
48765;SDS011;65794;51.836;5.002;2024-01-16T07:10:58;5.07;;;1.60;;
48765;SDS011;65794;51.836;5.002;2024-01-16T07:13:25;5.97;;;1.80;;
48765;SDS011;65794;51.836;5.002;2024-01-16T07:15:52;5.65;;;1.65;;
48765;SDS011;65794;51.836;5.002;2024-01-16T07:18:18;6.32;;;2.00;;
48765;SDS011;65794;51.836;5.002;2024-01-16T07:20:46;6.43;;;2.10;;
48765;SDS011;65794;51.836;5.002;2024-01-16T07:23:13;23.15;;;2.53;;
48765;SDS011;65794;51.836;5.002;2024-01-16T07:25:40;7.78;;;2.08;;
48765;SDS011;65794;51.836;5.002;2024-01-16T07:28:07;18.67;;;2.60;;
48765;SDS011;65794;51.836;5.002;2024-01-16T07:30:35;22.90;;;2.80;;
48765;SDS011;65794;51.836;5.002;2024-01-16T07:33:03;9.52;;;1.50;;
48765;SDS011;65794;51.836;5.002;2024-01-16T07:35:30;6.40;;;1.98;;
48765;SDS011;65794;51.836;5.002;2024-01-16T07:37:57;10.95;;;2.28;;
48765;SDS011;65794;51.836;5.002;2024-01-16T07:40:25;9.27;;;1.95;;
48765;SDS011;65794;51.836;5.002;2024-01-16T07:42:52;8.98;;;2.60;;
48765;SDS011;65794;51.836;5.002;2024-01-16T07:45:19;13.95;;;2.67;;
48765;SDS011;65794;51.836;5.002;2024-01-16T07:47:46;11.43;;;3.30;;
48765;SDS011;65794;51.836;5.002;2024-01-16T07:50:12;12.20;;;3.10;;
48765;SDS011;65794;51.836;5.002;2024-01-16T07:52:39;8.90;;;2.63;;
48765;SDS011;65794;51.836;5.002;2024-01-16T07:55:06;14.30;;;3.97;;
48765;SDS011;65794;51.836;5.002;2024-01-16T07:57:33;9.77;;;3.38;;
48765;SDS011;65794;51.836;5.002;2024-01-16T07:59:59;9.13;;;3.28;;
48765;SDS011;65794;51.836;5.002;2024-01-16T08:02:30;13.90;;;4.43;;
48765;SDS011;65794;51.836;5.002;2024-01-16T08:04:58;7.03;;;3.20;;
48765;SDS011;65794;51.836;5.002;2024-01-16T08:07:25;11.55;;;3.70;;
48765;SDS011;65794;51.836;5.002;2024-01-16T08:09:51;6.68;;;3.08;;
48765;SDS011;65794;51.836;5.002;2024-01-16T08:12:18;15.43;;;3.75;;
48765;SDS011;65794;51.836;5.002;2024-01-16T08:14:45;14.73;;;3.35;;
48765;SDS011;65794;51.836;5.002;2024-01-16T08:17:12;10.85;;;3.03;;
48765;SDS011;65794;51.836;5.002;2024-01-16T08:19:39;17.60;;;3.00;;
48765;SDS011;65794;51.836;5.002;2024-01-16T08:22:05;16.55;;;3.70;;
48765;SDS011;65794;51.836;5.002;2024-01-16T08:24:35;14.98;;;4.38;;
48765;SDS011;65794;51.836;5.002;2024-01-16T08:27:01;11.20;;;3.85;;
48765;SDS011;65794;51.836;5.002;2024-01-16T08:29:29;9.35;;;3.25;;
48765;SDS011;65794;51.836;5.002;2024-01-16T08:31:56;11.48;;;3.38;;
48765;SDS011;65794;51.836;5.002;2024-01-16T08:34:23;5.43;;;1.98;;
48765;SDS011;65794;51.836;5.002;2024-01-16T08:36:50;16.65;;;4.45;;
48765;SDS011;65794;51.836;5.002;2024-01-16T08:39:16;14.57;;;4.55;;
48765;SDS011;65794;51.836;5.002;2024-01-16T08:41:43;12.82;;;3.90;;
48765;SDS011;65794;51.836;5.002;2024-01-16T08:44:12;17.25;;;4.80;;
48765;SDS011;65794;51.836;5.002;2024-01-16T08:46:39;12.35;;;3.88;;
48765;SDS011;65794;51.836;5.002;2024-01-16T08:49:06;13.73;;;3.88;;
48765;SDS011;65794;51.836;5.002;2024-01-16T08:51:33;16.40;;;3.15;;
48765;SDS011;65794;51.836;5.002;2024-01-16T08:53:59;9.73;;;3.55;;
48765;SDS011;65794;51.836;5.002;2024-01-16T08:56:26;14.15;;;3.65;;
48765;SDS011;65794;51.836;5.002;2024-01-16T08:58:53;12.45;;;4.22;;
48765;SDS011;65794;51.836;5.002;2024-01-16T09:01:20;15.70;;;3.85;;
48765;SDS011;65794;51.836;5.002;2024-01-16T09:03:47;17.05;;;4.25;;
48765;SDS011;65794;51.836;5.002;2024-01-16T09:06:14;12.75;;;4.13;;
48765;SDS011;65794;51.836;5.002;2024-01-16T09:08:41;16.15;;;4.55;;
48765;SDS011;65794;51.836;5.002;2024-01-16T09:11:08;13.02;;;4.47;;
48765;SDS011;65794;51.836;5.002;2024-01-16T09:13:35;12.82;;;4.10;;
48765;SDS011;65794;51.836;5.002;2024-01-16T09:16:03;14.02;;;4.03;;
48765;SDS011;65794;51.836;5.002;2024-01-16T09:18:30;15.05;;;4.32;;
48765;SDS011;65794;51.836;5.002;2024-01-16T09:20:57;14.07;;;3.75;;
48765;SDS011;65794;51.836;5.002;2024-01-16T09:23:24;14.30;;;3.90;;
48765;SDS011;65794;51.836;5.002;2024-01-16T09:25:51;15.40;;;4.00;;
48765;SDS011;65794;51.836;5.002;2024-01-16T09:28:18;10.60;;;3.78;;
48765;SDS011;65794;51.836;5.002;2024-01-16T09:30:44;12.93;;;3.53;;
48765;SDS011;65794;51.836;5.002;2024-01-16T09:33:11;10.73;;;3.38;;
48765;SDS011;65794;51.836;5.002;2024-01-16T09:35:40;15.55;;;3.95;;
48765;SDS011;65794;51.836;5.002;2024-01-16T09:38:07;19.05;;;3.75;;
48765;SDS011;65794;51.836;5.002;2024-01-16T09:40:33;11.93;;;2.95;;
48765;SDS011;65794;51.836;5.002;2024-01-16T09:43:01;8.38;;;2.70;;
48765;SDS011;65794;51.836;5.002;2024-01-16T09:45:30;9.32;;;2.47;;
48765;SDS011;65794;51.836;5.002;2024-01-16T09:47:57;7.35;;;2.55;;
48765;SDS011;65794;51.836;5.002;2024-01-16T09:50:26;11.18;;;2.65;;
48765;SDS011;65794;51.836;5.002;2024-01-16T09:52:52;8.20;;;2.55;;
48765;SDS011;65794;51.836;5.002;2024-01-16T09:55:23;3.63;;;1.80;;
48765;SDS011;65794;51.836;5.002;2024-01-16T09:57:53;9.95;;;2.13;;
48765;SDS011;65794;51.836;5.002;2024-01-16T10:00:20;11.00;;;2.17;;
48765;SDS011;65794;51.836;5.002;2024-01-16T10:02:47;9.40;;;1.95;;
48765;SDS011;65794;51.836;5.002;2024-01-16T10:05:15;11.57;;;2.17;;
48765;SDS011;65794;51.836;5.002;2024-01-16T10:07:42;6.18;;;2.10;;
48765;SDS011;65794;51.836;5.002;2024-01-16T10:10:12;7.72;;;1.98;;
48765;SDS011;65794;51.836;5.002;2024-01-16T10:12:39;9.48;;;2.10;;
48765;SDS011;65794;51.836;5.002;2024-01-16T10:15:06;12.20;;;1.98;;
48765;SDS011;65794;51.836;5.002;2024-01-16T10:17:39;7.03;;;2.17;;
48765;SDS011;65794;51.836;5.002;2024-01-16T10:20:07;5.35;;;1.90;;
48765;SDS011;65794;51.836;5.002;2024-01-16T10:22:36;7.13;;;2.30;;
48765;SDS011;65794;51.836;5.002;2024-01-16T10:25:06;11.60;;;1.92;;
48765;SDS011;65794;51.836;5.002;2024-01-16T10:27:34;9.57;;;2.22;;
48765;SDS011;65794;51.836;5.002;2024-01-16T10:30:01;5.30;;;1.95;;
48765;SDS011;65794;51.836;5.002;2024-01-16T10:32:31;7.15;;;2.60;;
48765;SDS011;65794;51.836;5.002;2024-01-16T10:37:28;5.93;;;2.85;;
48765;SDS011;65794;51.836;5.002;2024-01-16T10:39:55;9.30;;;3.05;;
48765;SDS011;65794;51.836;5.002;2024-01-16T10:42:22;8.38;;;3.40;;
48765;SDS011;65794;51.836;5.002;2024-01-16T10:44:55;9.23;;;3.13;;
48765;SDS011;65794;51.836;5.002;2024-01-16T10:47:24;9.18;;;3.35;;
48765;SDS011;65794;51.836;5.002;2024-01-16T10:49:51;11.73;;;3.88;;
48765;SDS011;65794;51.836;5.002;2024-01-16T10:52:18;10.80;;;3.88;;
48765;SDS011;65794;51.836;5.002;2024-01-16T10:54:49;10.57;;;3.53;;
48765;SDS011;65794;51.836;5.002;2024-01-16T10:57:17;10.23;;;4.00;;
48765;SDS011;65794;51.836;5.002;2024-01-16T11:00:04;19.23;;;6.78;;
48765;SDS011;65794;51.836;5.002;2024-01-16T11:02:33;11.38;;;3.85;;
48765;SDS011;65794;51.836;5.002;2024-01-16T11:05:03;14.48;;;3.95;;
48765;SDS011;65794;51.836;5.002;2024-01-16T11:07:33;15.27;;;5.30;;
48765;SDS011;65794;51.836;5.002;2024-01-16T11:10:01;15.40;;;4.75;;
48765;SDS011;65794;51.836;5.002;2024-01-16T11:12:29;12.40;;;4.20;;
48765;SDS011;65794;51.836;5.002;2024-01-16T11:14:57;16.23;;;4.72;;
48765;SDS011;65794;51.836;5.002;2024-01-16T11:17:25;12.18;;;4.72;;
48765;SDS011;65794;51.836;5.002;2024-01-16T11:19:52;13.63;;;3.85;;
48765;SDS011;65794;51.836;5.002;2024-01-16T11:22:40;14.20;;;3.78;;
48765;SDS011;65794;51.836;5.002;2024-01-16T11:25:11;12.77;;;4.10;;
48765;SDS011;65794;51.836;5.002;2024-01-16T11:27:38;7.70;;;3.03;;
48765;SDS011;65794;51.836;5.002;2024-01-16T11:30:05;9.82;;;3.40;;
48765;SDS011;65794;51.836;5.002;2024-01-16T11:32:34;11.48;;;3.38;;
48765;SDS011;65794;51.836;5.002;2024-01-16T11:35:05;10.73;;;3.65;;
48765;SDS011;65794;51.836;5.002;2024-01-16T11:37:33;10.68;;;3.58;;
48765;SDS011;65794;51.836;5.002;2024-01-16T11:42:48;15.40;;;3.60;;
48765;SDS011;65794;51.836;5.002;2024-01-16T11:48:10;8.55;;;3.30;;
48765;SDS011;65794;51.836;5.002;2024-01-16T11:50:37;12.07;;;3.10;;
48765;SDS011;65794;51.836;5.002;2024-01-16T11:53:04;8.13;;;3.05;;
48765;SDS011;65794;51.836;5.002;2024-01-16T11:55:32;10.07;;;3.30;;
48765;SDS011;65794;51.836;5.002;2024-01-16T12:00:26;8.13;;;2.90;;
48765;SDS011;65794;51.836;5.002;2024-01-16T12:02:56;6.63;;;2.70;;
48765;SDS011;65794;51.836;5.002;2024-01-16T12:05:23;10.40;;;2.92;;
48765;SDS011;65794;51.836;5.002;2024-01-16T12:07:51;5.15;;;2.30;;
48765;SDS011;65794;51.836;5.002;2024-01-16T12:10:23;10.18;;;2.67;;
48765;SDS011;65794;51.836;5.002;2024-01-16T12:12:50;8.40;;;2.58;;
48765;SDS011;65794;51.836;5.002;2024-01-16T12:15:20;8.32;;;2.33;;
48765;SDS011;65794;51.836;5.002;2024-01-16T12:17:52;12.32;;;2.88;;
48765;SDS011;65794;51.836;5.002;2024-01-16T12:20:19;13.15;;;2.78;;
48765;SDS011;65794;51.836;5.002;2024-01-16T12:25:23;8.25;;;2.50;;
48765;SDS011;65794;51.836;5.002;2024-01-16T12:28:10;7.80;;;2.40;;
48765;SDS011;65794;51.836;5.002;2024-01-16T12:30:57;10.98;;;2.72;;
48765;SDS011;65794;51.836;5.002;2024-01-16T12:33:24;9.77;;;2.58;;
48765;SDS011;65794;51.836;5.002;2024-01-16T12:35:59;7.28;;;2.88;;
48765;SDS011;65794;51.836;5.002;2024-01-16T12:38:27;8.90;;;2.97;;
48765;SDS011;65794;51.836;5.002;2024-01-16T12:40:54;7.28;;;2.50;;
48765;SDS011;65794;51.836;5.002;2024-01-16T12:43:21;9.63;;;2.55;;
48765;SDS011;65794;51.836;5.002;2024-01-16T12:45:54;8.77;;;2.63;;
48765;SDS011;65794;51.836;5.002;2024-01-16T12:48:25;8.23;;;2.60;;
48765;SDS011;65794;51.836;5.002;2024-01-16T12:51:02;8.07;;;2.60;;
48765;SDS011;65794;51.836;5.002;2024-01-16T12:53:31;8.25;;;2.53;;
48765;SDS011;65794;51.836;5.002;2024-01-16T12:55:59;10.35;;;2.78;;
48765;SDS011;65794;51.836;5.002;2024-01-16T12:58:31;7.35;;;2.28;;
48765;SDS011;65794;51.836;5.002;2024-01-16T13:01:04;5.95;;;2.22;;
48765;SDS011;65794;51.836;5.002;2024-01-16T13:03:56;9.88;;;2.20;;
48765;SDS011;65794;51.836;5.002;2024-01-16T13:06:26;7.53;;;2.40;;
48765;SDS011;65794;51.836;5.002;2024-01-16T13:09:03;5.32;;;1.90;;
48765;SDS011;65794;51.836;5.002;2024-01-16T13:11:32;13.00;;;2.05;;
48765;SDS011;65794;51.836;5.002;2024-01-16T13:14:10;6.53;;;2.45;;
48765;SDS011;65794;51.836;5.002;2024-01-16T13:16:37;7.38;;;2.13;;
48765;SDS011;65794;51.836;5.002;2024-01-16T13:19:04;7.00;;;2.17;;
48765;SDS011;65794;51.836;5.002;2024-01-16T13:21:35;9.32;;;2.05;;
48765;SDS011;65794;51.836;5.002;2024-01-16T13:24:03;15.43;;;2.90;;
48765;SDS011;65794;51.836;5.002;2024-01-16T13:26:30;7.97;;;2.17;;
48765;SDS011;65794;51.836;5.002;2024-01-16T13:28:59;5.07;;;1.80;;
48765;SDS011;65794;51.836;5.002;2024-01-16T13:31:26;5.55;;;1.85;;
48765;SDS011;65794;51.836;5.002;2024-01-16T13:33:53;12.25;;;2.03;;
48765;SDS011;65794;51.836;5.002;2024-01-16T13:36:20;6.38;;;1.98;;
48765;SDS011;65794;51.836;5.002;2024-01-16T13:39:09;5.72;;;1.65;;
48765;SDS011;65794;51.836;5.002;2024-01-16T13:41:40;6.25;;;1.80;;
48765;SDS011;65794;51.836;5.002;2024-01-16T13:44:07;11.93;;;2.20;;
48765;SDS011;65794;51.836;5.002;2024-01-16T13:46:34;5.85;;;1.80;;
48765;SDS011;65794;51.836;5.002;2024-01-16T13:51:47;6.20;;;1.95;;
48765;SDS011;65794;51.836;5.002;2024-01-16T13:54:14;5.18;;;2.03;;
48765;SDS011;65794;51.836;5.002;2024-01-16T13:56:42;4.32;;;1.77;;
48765;SDS011;65794;51.836;5.002;2024-01-16T13:59:29;6.38;;;1.50;;
48765;SDS011;65794;51.836;5.002;2024-01-16T14:01:56;4.88;;;1.35;;
48765;SDS011;65794;51.836;5.002;2024-01-16T14:04:23;3.75;;;1.45;;
48765;SDS011;65794;51.836;5.002;2024-01-16T14:06:50;11.98;;;2.10;;
48765;SDS011;65794;51.836;5.002;2024-01-16T14:12:03;9.18;;;2.00;;
48765;SDS011;65794;51.836;5.002;2024-01-16T14:14:32;5.15;;;1.58;;
48765;SDS011;65794;51.836;5.002;2024-01-16T14:16:59;4.72;;;1.60;;
48765;SDS011;65794;51.836;5.002;2024-01-16T14:19:28;5.13;;;1.25;;
48765;SDS011;65794;51.836;5.002;2024-01-16T14:21:57;6.85;;;1.77;;
48765;SDS011;65794;51.836;5.002;2024-01-16T14:24:24;5.15;;;1.70;;
48765;SDS011;65794;51.836;5.002;2024-01-16T14:26:51;6.30;;;1.58;;
48765;SDS011;65794;51.836;5.002;2024-01-16T14:29:18;6.05;;;1.70;;
48765;SDS011;65794;51.836;5.002;2024-01-16T14:31:45;5.97;;;1.80;;
48765;SDS011;65794;51.836;5.002;2024-01-16T14:34:16;5.00;;;1.60;;
48765;SDS011;65794;51.836;5.002;2024-01-16T14:36:45;8.00;;;1.63;;
48765;SDS011;65794;51.836;5.002;2024-01-16T14:39:12;5.53;;;1.88;;
48765;SDS011;65794;51.836;5.002;2024-01-16T14:41:48;6.75;;;2.17;;
48765;SDS011;65794;51.836;5.002;2024-01-16T14:44:15;8.15;;;2.05;;
48765;SDS011;65794;51.836;5.002;2024-01-16T14:46:43;6.78;;;1.88;;
48765;SDS011;65794;51.836;5.002;2024-01-16T14:49:14;6.43;;;2.00;;
48765;SDS011;65794;51.836;5.002;2024-01-16T14:51:41;11.63;;;2.08;;
48765;SDS011;65794;51.836;5.002;2024-01-16T14:54:08;6.93;;;1.90;;
48765;SDS011;65794;51.836;5.002;2024-01-16T14:56:35;6.07;;;2.13;;
48765;SDS011;65794;51.836;5.002;2024-01-16T14:59:03;6.70;;;1.95;;
48765;SDS011;65794;51.836;5.002;2024-01-16T15:01:30;6.60;;;1.83;;
48765;SDS011;65794;51.836;5.002;2024-01-16T15:03:57;6.22;;;1.80;;
48765;SDS011;65794;51.836;5.002;2024-01-16T15:06:24;8.32;;;2.08;;